Elgin, IL

12:30 AM CST on February 21, 2017 (GMT -0600)
Aurora Municipal | | Change Station
Active Advisory: Small Craft Advisory

Elev 712 ft 41.77 °N, 88.48 °W | Updated 38 minutes ago

Overcast
Overcast
57 °F
Feels Like 57 °F
N
7
Wind Variable Wind from South

Today
High -- | Low -- °F
--% Chance of Precip.
Yesterday
High -- | Low -- °F
Precip. -- in
Pressure 29.92 in
Visibility 9.0 miles
Clouds Scattered Clouds 4200 ft
Dew Point 48 °F
Humidity 72%
Rainfall 0.00 in
Snow Depth Not available.
6:40 AM 5:34 PM
Waning Crescent, 28% visible
METAR KARR 210552Z AUTO 17006KT 9SM SCT042 14/09 A2992 RMK AO2 SLP130 T01390089 10178 20139 402110061 55002
Pressure 29.92 in
Visibility 9.0 miles
Clouds Scattered Clouds 4200 ft
Dew Point 48 °F
Humidity 72%
Rainfall 0.00 in
Snow Depth Not available.
6:40 AM 5:34 PM
Waning Crescent, 28% visible
METAR KARR 210552Z AUTO 17006KT 9SM SCT042 14/09 A2992 RMK AO2 SLP130 T01390089 10178 20139 402110061 55002

Get Your Daily Forecast Email!

Thanks for signing up!

Be on the lookout for a verification email in your inbox.

You'll start receiving the daily forecast at 8 AM.

×

10-Day Weather Forecast

Almanac

Astronomy

Feb. 21, 2017 Rise Set
Actual Time
Civil Twilight
Nautical Twilight
Astronomical Twilight
Moon
Length of Visible Light
Length of Day
Tomorrow will be .
, % of the Moon is Illuminated

Today's Extremes

State Highs State Lows

Community

WunderPhotos

Upload Photos

1,962,540 photos uploaded!

WunderBlog® & News

Nearby

Air Quality

  Air Quality AQ Index Pollutant
Not available.

Snow Depth

Station Depth Elevation

Earthquake Activity

City Distance Mag. Time & Date
Minimum magnitude displayed is 2.5.

Coastal Water Temperatures

Place Temperature

Stations

Nearby Weather Stations

Station Location Temp. Windchill Dew Point Humidity Wind Precip. Elev Updated Type
                   

Watches & Warnings

Small Craft Advisory
Issued: 9:15 PM CST Feb. 20, 2017 – National Weather Service

... Small Craft Advisory remains in effect until 3 am CST
Tuesday...

* winds... to 25 kt.

* Significant waves... to 5 ft for IL... to 3 ft for Indiana.

* Occasional waves... to 7 ft for IL.

Precautionary/preparedness actions...

A Small Craft Advisory means that wind speeds of 21 to 33 knots
are expected to produce hazardous wave conditions to small craft.
Inexperienced mariners... especially those operating smaller
vessels should avoid navigating in these conditions.




Rodriguez